Terminal Aerodrome Forecast
Issued by NWS Pendleton, OR

Current Version | Previous Version | Text Only | Print | Product List | Glossary On
Versions: 1 2 3 4 5 6 7 8 9 10 11 12 13 14 15 16 17 18 19 20
096
FTUS46 KPDT 091140
TAFPDT
TAF
KPDT 091140Z 0912/1012 14005KT 4SM -SHSN BR OVC005
     FM091500 35007KT 3SM -SN BR OVC005
     FM100300 30005KT 4SM -SHSN BR OVC015=

USA.gov is the U.S. government's official web portal to all federal, state and local government web resources and services.